createdAt,value
2022-12-16T00:00:33.322Z,53.42
2022-12-16T00:01:33.380Z,55.20
2022-12-16T00:02:33.426Z,56.78
2022-12-16T00:03:33.635Z,53.86
2022-12-16T00:04:33.249Z,52.10
2022-12-16T00:05:33.258Z,52.63
2022-12-16T00:06:33.222Z,55.00
2022-12-16T00:07:33.234Z,54.41
2022-12-16T00:08:33.212Z,51.67
2022-12-16T00:09:33.205Z,53.79
2022-12-16T00:10:33.191Z,56.62
2022-12-16T00:11:33.210Z,56.56
2022-12-16T00:12:33.185Z,50.63
2022-12-16T00:13:33.574Z,52.41
2022-12-16T00:14:33.164Z,53.53
2022-12-16T00:15:33.148Z,60.54
2022-12-16T00:16:33.220Z,58.40
2022-12-16T00:17:33.140Z,54.51
2022-12-16T00:18:33.150Z,56.87
2022-12-16T00:19:33.134Z,57.37
2022-12-16T00:20:33.129Z,55.00
2022-12-16T00:21:33.126Z,52.99
2022-12-16T00:22:33.119Z,50.49
2022-12-16T00:23:33.419Z,56.94
2022-12-16T00:24:33.074Z,55.85
2022-12-16T00:25:33.061Z,54.17
2022-12-16T00:26:33.057Z,52.73
2022-12-16T00:27:33.074Z,55.40
2022-12-16T00:28:33.043Z,54.02
2022-12-16T00:29:33.032Z,57.47
2022-12-16T00:30:33.028Z,57.73
2022-12-16T00:31:33.110Z,55.17
2022-12-16T00:32:33.032Z,55.59
2022-12-16T00:33:33.549Z,55.46
2022-12-16T00:34:32.987Z,57.83
2022-12-16T00:35:32.981Z,66.39
2022-12-16T00:36:32.968Z,55.39
2022-12-16T00:37:32.951Z,53.53
2022-12-16T00:38:33.000Z,66.04
2022-12-16T00:39:32.964Z,58.69
2022-12-16T00:40:32.919Z,54.03
2022-12-16T00:41:32.930Z,53.60
2022-12-16T00:42:32.907Z,63.55
2022-12-16T00:43:33.438Z,55.10
2022-12-16T00:44:32.952Z,53.26
2022-12-16T00:45:32.923Z,61.01
2022-12-16T00:46:32.888Z,54.99
2022-12-16T00:47:32.874Z,56.57
2022-12-16T00:48:32.864Z,61.56
2022-12-16T00:49:32.874Z,54.04
2022-12-16T00:50:32.858Z,52.02
2022-12-16T00:51:32.831Z,51.99
2022-12-16T00:52:32.873Z,55.98
2022-12-16T00:53:33.241Z,56.47
2022-12-16T00:54:32.800Z,54.06
2022-12-16T00:55:32.807Z,57.27
2022-12-16T00:56:32.794Z,52.17
2022-12-16T00:57:33.787Z,51.29
2022-12-16T00:58:32.774Z,52.94
2022-12-16T00:59:32.764Z,52.90
2022-12-16T01:00:32.764Z,52.58
2022-12-16T01:01:32.945Z,51.70
2022-12-16T01:02:32.907Z,52.85
2022-12-16T01:03:32.907Z,54.08
2022-12-16T01:04:32.706Z,55.89
2022-12-16T01:05:32.716Z,61.42
2022-12-16T01:06:32.706Z,54.73
2022-12-16T01:07:32.675Z,58.75
2022-12-16T01:08:32.705Z,63.39
2022-12-16T01:09:32.691Z,62.37
2022-12-16T01:10:32.662Z,60.56
2022-12-16T01:11:32.683Z,56.69
2022-12-16T01:12:32.658Z,56.17
2022-12-16T01:13:32.926Z,57.81
2022-12-16T01:14:32.657Z,56.59
2022-12-16T01:15:32.659Z,67.15
2022-12-16T01:16:32.680Z,58.53
2022-12-16T01:17:32.598Z,58.52
2022-12-16T01:18:32.583Z,52.38
2022-12-16T01:19:32.587Z,50.55
2022-12-16T01:20:32.605Z,56.45
2022-12-16T01:21:32.573Z,56.61
2022-12-16T01:22:32.549Z,59.85
2022-12-16T01:23:32.992Z,62.87
2022-12-16T01:24:32.512Z,52.64
2022-12-16T01:25:32.544Z,54.76
2022-12-16T01:26:32.505Z,56.03
2022-12-16T01:27:32.525Z,57.09
2022-12-16T01:28:32.506Z,60.07
2022-12-16T01:29:32.492Z,56.74
2022-12-16T01:30:32.457Z,51.97
2022-12-16T01:31:33.534Z,53.88
2022-12-16T01:32:32.471Z,59.26
2022-12-16T01:33:32.861Z,52.10
2022-12-16T01:34:32.447Z,62.45
2022-12-16T01:36:01.398Z,59.23
2022-12-16T01:36:34.419Z,57.54
2022-12-16T01:37:32.415Z,56.70
2022-12-16T01:38:32.391Z,65.38
2022-12-16T01:39:32.404Z,59.78
2022-12-16T01:40:32.404Z,58.34
2022-12-16T01:41:32.395Z,55.71
2022-12-16T01:42:32.361Z,53.10
2022-12-16T01:43:32.668Z,53.53
2022-12-16T01:44:33.338Z,53.86
2022-12-16T01:45:32.412Z,64.39
2022-12-16T01:46:32.333Z,59.00
2022-12-16T01:47:32.329Z,52.70
2022-12-16T01:48:32.335Z,53.28
2022-12-16T01:49:32.313Z,60.53
2022-12-16T01:50:32.319Z,60.00
2022-12-16T01:51:33.300Z,50.18
2022-12-16T01:52:32.304Z,53.86
2022-12-16T01:53:32.714Z,53.03
2022-12-16T01:54:32.268Z,57.15
2022-12-16T01:55:32.264Z,51.77
2022-12-16T01:56:32.253Z,52.86
2022-12-16T01:57:32.225Z,50.57
2022-12-16T01:58:32.241Z,55.31
2022-12-16T01:59:32.234Z,56.20
2022-12-16T02:00:32.211Z,56.51
2022-12-16T02:01:32.364Z,50.78
2022-12-16T02:02:32.283Z,52.13
2022-12-16T02:03:32.607Z,53.13
2022-12-16T02:04:32.186Z,55.43
2022-12-16T02:05:32.187Z,55.94
2022-12-16T02:06:32.166Z,54.84
2022-12-16T02:07:32.145Z,55.85
2022-12-16T02:08:32.125Z,53.17
2022-12-16T02:09:32.148Z,52.79
2022-12-16T02:10:32.115Z,53.26
2022-12-16T02:11:32.115Z,51.37
2022-12-16T02:12:32.125Z,51.46
2022-12-16T02:13:32.437Z,51.69
2022-12-16T02:14:32.111Z,53.11
2022-12-16T02:15:32.082Z,56.72
2022-12-16T02:16:32.123Z,55.60
2022-12-16T02:17:32.068Z,54.74
2022-12-16T02:18:32.048Z,53.58
2022-12-16T02:19:32.047Z,54.37
2022-12-16T02:20:32.033Z,54.05
2022-12-16T02:21:32.032Z,56.20
2022-12-16T02:22:32.002Z,54.95
2022-12-16T02:23:33.368Z,60.76
2022-12-16T02:24:32.015Z,57.20
2022-12-16T02:25:31.996Z,54.99
2022-12-16T02:26:31.969Z,52.76
2022-12-16T02:27:32.006Z,50.65
2022-12-16T02:28:31.946Z,51.77
2022-12-16T02:29:31.957Z,64.86
2022-12-16T02:30:32.031Z,57.07
2022-12-16T02:31:31.942Z,53.24
2022-12-16T02:32:31.942Z,51.41
2022-12-16T02:33:32.395Z,48.11
2022-12-16T02:34:31.903Z,51.52
2022-12-16T02:35:31.891Z,53.44
2022-12-16T02:36:31.880Z,59.37
2022-12-16T02:37:31.897Z,57.62
2022-12-16T02:38:31.862Z,55.16
2022-12-16T02:39:31.866Z,65.29
2022-12-16T02:40:31.850Z,63.82
2022-12-16T02:41:31.868Z,55.38
2022-12-16T02:42:31.841Z,57.66
2022-12-16T02:43:32.192Z,64.62
2022-12-16T02:44:31.819Z,52.89
2022-12-16T02:45:31.878Z,51.30
2022-12-16T02:46:31.835Z,52.12
2022-12-16T02:47:31.784Z,53.75
2022-12-16T02:48:31.776Z,60.86
2022-12-16T02:49:31.794Z,55.04
2022-12-16T02:50:31.791Z,51.04
2022-12-16T02:51:31.763Z,52.14
2022-12-16T02:52:31.767Z,52.92
2022-12-16T02:53:32.081Z,53.63
2022-12-16T02:54:31.731Z,57.85
2022-12-16T02:55:31.753Z,52.98
2022-12-16T02:56:31.742Z,51.56
2022-12-16T02:57:31.692Z,51.72
2022-12-16T02:58:31.705Z,50.22
2022-12-16T02:59:31.684Z,58.75
2022-12-16T03:00:31.670Z,55.94
2022-12-16T03:01:31.842Z,54.97
2022-12-16T03:02:31.777Z,53.22
2022-12-16T03:03:31.979Z,54.22
2022-12-16T03:04:31.676Z,53.99
2022-12-16T03:05:31.656Z,56.08
2022-12-16T03:06:31.616Z,56.00
2022-12-16T03:07:31.632Z,60.45
2022-12-16T03:08:31.604Z,53.28
2022-12-16T03:09:31.595Z,51.41
2022-12-16T03:11:03.516Z,57.51
2022-12-16T03:11:31.575Z,58.08
2022-12-16T03:12:31.648Z,55.44
2022-12-16T03:13:31.917Z,54.11
2022-12-16T03:14:31.549Z,52.53
2022-12-16T03:15:31.555Z,54.66
2022-12-16T03:16:31.637Z,53.84
2022-12-16T03:17:31.576Z,56.37
2022-12-16T03:18:31.508Z,62.86
2022-12-16T03:19:31.518Z,56.93
2022-12-16T03:20:31.532Z,56.80
2022-12-16T03:21:31.514Z,61.83
2022-12-16T03:22:31.490Z,57.81
2022-12-16T03:23:31.786Z,54.69
2022-12-16T03:24:31.455Z,58.23
2022-12-16T03:25:31.459Z,56.30
2022-12-16T03:26:31.460Z,54.10
2022-12-16T03:27:31.454Z,56.64
2022-12-16T03:28:31.448Z,54.72
2022-12-16T03:29:31.425Z,57.19
2022-12-16T03:30:31.433Z,54.51
2022-12-16T03:31:31.410Z,53.80
2022-12-16T03:32:31.417Z,56.32
2022-12-16T03:33:32.778Z,55.41
2022-12-16T03:34:31.403Z,54.27
2022-12-16T03:35:31.383Z,60.34
2022-12-16T03:36:31.354Z,60.60
2022-12-16T03:37:31.343Z,58.99
2022-12-16T03:38:31.368Z,59.53
2022-12-16T03:39:31.341Z,59.72
2022-12-16T03:40:31.322Z,67.75
2022-12-16T03:41:31.317Z,57.48
2022-12-16T03:42:31.308Z,54.51
2022-12-16T03:43:31.589Z,54.86
2022-12-16T03:44:31.305Z,54.68
2022-12-16T03:45:31.273Z,54.84
2022-12-16T03:46:31.329Z,57.21
2022-12-16T03:47:31.283Z,55.76
2022-12-16T03:48:31.249Z,56.54
2022-12-16T03:49:31.241Z,56.91
2022-12-16T03:50:31.232Z,56.07
2022-12-16T03:51:31.229Z,56.54
2022-12-16T03:52:31.248Z,59.30
2022-12-16T03:53:31.458Z,61.96
2022-12-16T03:54:31.216Z,56.86
2022-12-16T03:55:31.188Z,54.29
2022-12-16T03:56:31.186Z,55.32
2022-12-16T03:57:31.177Z,57.30
2022-12-16T03:58:31.177Z,55.59
2022-12-16T03:59:31.185Z,56.10
2022-12-16T04:00:31.138Z,65.53
2022-12-16T04:01:31.288Z,60.99
2022-12-16T04:02:31.370Z,60.00
2022-12-16T04:03:31.565Z,58.41
2022-12-16T04:04:31.121Z,65.54
2022-12-16T04:05:31.183Z,60.87
2022-12-16T04:06:31.101Z,59.64
2022-12-16T04:07:31.098Z,60.88
2022-12-16T04:08:31.072Z,58.15
2022-12-16T04:09:31.073Z,60.82
2022-12-16T04:10:31.058Z,58.31
2022-12-16T04:11:31.078Z,57.80
2022-12-16T04:12:31.036Z,68.21
2022-12-16T04:13:31.358Z,63.96
2022-12-16T04:14:31.025Z,63.19
2022-12-16T04:15:31.051Z,67.44
2022-12-16T04:16:31.040Z,64.38
2022-12-16T04:17:31.031Z,63.41
2022-12-16T04:18:30.984Z,62.20
2022-12-16T04:19:30.979Z,64.61
2022-12-16T04:20:30.957Z,65.54
2022-12-16T04:21:30.945Z,60.98
2022-12-16T04:22:30.954Z,58.99
2022-12-16T04:23:31.357Z,58.78
2022-12-16T04:24:30.932Z,59.43
2022-12-16T04:25:30.935Z,59.73
2022-12-16T04:26:30.931Z,57.95
2022-12-16T04:27:30.902Z,60.94
2022-12-16T04:28:30.894Z,58.94
2022-12-16T04:29:30.902Z,59.38
2022-12-16T04:30:30.903Z,63.29
2022-12-16T04:31:30.927Z,58.61
2022-12-16T04:32:30.881Z,58.78
2022-12-16T04:33:31.289Z,58.65
2022-12-16T04:34:30.848Z,61.96
2022-12-16T04:35:30.864Z,69.95
2022-12-16T04:36:30.814Z,58.45
2022-12-16T04:37:30.813Z,59.77
2022-12-16T04:38:30.803Z,60.19
2022-12-16T04:39:30.810Z,67.88
2022-12-16T04:40:30.807Z,61.28
2022-12-16T04:41:30.789Z,61.58
2022-12-16T04:42:30.791Z,61.19
2022-12-16T04:43:31.146Z,59.80
2022-12-16T04:44:30.764Z,60.02
2022-12-16T04:45:30.754Z,61.06
2022-12-16T04:46:30.832Z,68.18
2022-12-16T04:47:30.748Z,59.88
2022-12-16T04:48:30.722Z,61.31
2022-12-16T04:49:30.720Z,60.25
2022-12-16T04:50:30.715Z,59.66
2022-12-16T04:51:30.731Z,60.79
2022-12-16T04:52:30.688Z,67.76
2022-12-16T04:53:31.052Z,57.79
2022-12-16T04:54:30.674Z,59.19
2022-12-16T04:55:30.662Z,59.73
2022-12-16T04:56:30.658Z,58.16
2022-12-16T04:57:30.688Z,63.54
2022-12-16T04:58:30.634Z,62.39
2022-12-16T04:59:30.632Z,61.44
2022-12-16T05:00:30.629Z,60.45
2022-12-16T05:01:30.695Z,56.21
2022-12-16T05:02:30.774Z,59.76
2022-12-16T05:03:30.882Z,60.80
2022-12-16T05:04:30.596Z,60.17
2022-12-16T05:05:30.607Z,60.02
2022-12-16T05:06:30.574Z,59.75
2022-12-16T05:07:36.309Z,65.86
2022-12-16T05:08:32.567Z,61.98
2022-12-16T05:09:30.552Z,61.10
2022-12-16T05:10:30.571Z,60.50
2022-12-16T05:11:30.529Z,60.52
2022-12-16T05:12:30.519Z,59.90
2022-12-16T05:13:30.909Z,61.01
2022-12-16T05:14:30.517Z,60.77
2022-12-16T05:15:30.497Z,60.70
2022-12-16T05:16:30.543Z,60.99
2022-12-16T05:17:30.509Z,59.73
2022-12-16T05:18:30.487Z,60.09
2022-12-16T05:19:31.845Z,62.33
2022-12-16T05:20:30.515Z,61.88
2022-12-16T05:21:30.488Z,62.42
2022-12-16T05:22:30.427Z,62.16
2022-12-16T05:23:30.786Z,60.99
2022-12-16T05:24:30.432Z,61.20
2022-12-16T05:25:30.428Z,67.40
2022-12-16T05:26:30.431Z,60.30
2022-12-16T05:27:30.398Z,64.24
2022-12-16T05:28:30.405Z,71.40
2022-12-16T05:29:30.376Z,61.41
2022-12-16T05:30:33.646Z,61.37
2022-12-16T05:31:31.446Z,61.62
2022-12-16T05:32:30.370Z,72.87
2022-12-16T05:33:30.720Z,62.39
2022-12-16T05:34:30.335Z,62.47
2022-12-16T05:35:30.325Z,66.80
2022-12-16T05:36:30.298Z,60.51
2022-12-16T05:37:30.328Z,65.75
2022-12-16T05:38:30.290Z,60.78
2022-12-16T05:39:30.330Z,61.88
2022-12-16T05:40:30.292Z,63.57
2022-12-16T05:41:30.268Z,62.10
2022-12-16T05:42:30.253Z,60.82
2022-12-16T05:43:30.657Z,61.19
2022-12-16T05:44:30.274Z,61.67
2022-12-16T05:45:30.223Z,60.38
2022-12-16T05:46:30.297Z,60.91
2022-12-16T05:47:30.244Z,61.81
2022-12-16T05:48:30.195Z,60.95
2022-12-16T05:49:30.191Z,61.15
2022-12-16T05:50:30.191Z,60.71
2022-12-16T05:51:30.190Z,61.96
2022-12-16T05:52:30.160Z,60.82
2022-12-16T05:53:30.481Z,62.26
2022-12-16T05:54:30.143Z,60.70
2022-12-16T05:55:33.862Z,60.85
2022-12-16T05:56:31.154Z,60.38
2022-12-16T05:57:30.128Z,60.62
2022-12-16T05:58:30.142Z,61.59
2022-12-16T05:59:30.105Z,59.58
2022-12-16T06:00:30.090Z,60.38
2022-12-16T06:01:30.220Z,61.65
2022-12-16T06:02:30.192Z,59.60
2022-12-16T06:03:30.444Z,60.42
2022-12-16T06:04:30.058Z,62.10
2022-12-16T06:05:30.034Z,64.60
2022-12-16T06:06:30.126Z,62.06
2022-12-16T06:07:30.035Z,63.60
2022-12-16T06:08:30.011Z,67.43
2022-12-16T06:09:30.006Z,61.98
2022-12-16T06:10:29.987Z,63.04
2022-12-16T06:11:29.989Z,61.75
2022-12-16T06:12:30.003Z,62.73
2022-12-16T06:13:30.293Z,62.68
2022-12-16T06:14:29.981Z,66.38
2022-12-16T06:15:29.951Z,62.72
2022-12-16T06:16:29.973Z,62.76
2022-12-16T06:17:29.976Z,60.00
2022-12-16T06:18:29.920Z,62.18
2022-12-16T06:19:29.925Z,62.68
2022-12-16T06:20:29.903Z,61.88
2022-12-16T06:21:29.918Z,60.63
2022-12-16T06:22:29.910Z,61.48
2022-12-16T06:23:29.883Z,62.57
2022-12-16T06:24:29.901Z,61.58
2022-12-16T06:25:29.928Z,65.49
2022-12-16T06:26:29.861Z,61.10
2022-12-16T06:27:29.844Z,62.28
2022-12-16T06:28:29.843Z,62.76
2022-12-16T06:29:29.831Z,69.09
2022-12-16T06:30:29.827Z,66.51
2022-12-16T06:31:29.868Z,65.53
2022-12-16T06:32:29.821Z,66.03
2022-12-16T06:33:30.076Z,66.75
2022-12-16T06:34:29.787Z,60.57
2022-12-16T06:35:29.774Z,62.33
2022-12-16T06:36:29.759Z,62.29
2022-12-16T06:37:29.768Z,63.13
2022-12-16T06:38:29.768Z,70.05
2022-12-16T06:39:29.762Z,70.62
2022-12-16T06:40:29.751Z,62.27
2022-12-16T06:41:29.722Z,61.24
2022-12-16T06:42:29.713Z,62.62
2022-12-16T06:43:30.106Z,63.71
2022-12-16T06:44:29.728Z,64.94
2022-12-16T06:45:34.500Z,62.40
2022-12-16T06:46:31.773Z,61.79
2022-12-16T06:47:29.660Z,61.69
2022-12-16T06:48:29.682Z,61.63
2022-12-16T06:49:29.643Z,62.44
2022-12-16T06:50:29.639Z,64.43
2022-12-16T06:51:29.630Z,63.69
2022-12-16T06:52:29.639Z,61.47
2022-12-16T06:53:29.731Z,63.86
2022-12-16T06:54:29.590Z,64.31
2022-12-16T06:55:29.577Z,63.42
2022-12-16T06:56:29.574Z,62.30
2022-12-16T06:57:29.593Z,62.74
2022-12-16T06:58:29.559Z,66.45
2022-12-16T06:59:29.619Z,61.28
2022-12-16T07:00:29.543Z,62.07
2022-12-16T07:01:30.625Z,59.46
2022-12-16T07:02:29.634Z,60.79
2022-12-16T07:03:35.438Z,62.69
2022-12-16T07:04:31.508Z,61.74
2022-12-16T07:05:29.499Z,61.10
2022-12-16T07:06:29.488Z,64.43
2022-12-16T07:07:29.518Z,66.20
2022-12-16T07:08:29.500Z,64.59
2022-12-16T07:09:29.460Z,64.57
2022-12-16T07:10:29.485Z,62.49
2022-12-16T07:11:29.441Z,61.12
2022-12-16T07:12:29.422Z,62.99
2022-12-16T07:13:29.637Z,61.61
2022-12-16T07:14:29.413Z,61.13
2022-12-16T07:15:29.410Z,60.44
2022-12-16T07:16:29.436Z,61.06
2022-12-16T07:17:29.386Z,59.91
2022-12-16T07:18:29.421Z,61.28
2022-12-16T07:19:29.400Z,61.32
2022-12-16T07:20:29.384Z,61.46
2022-12-16T07:21:29.354Z,62.90
2022-12-16T07:22:29.373Z,61.61
2022-12-16T07:23:29.402Z,61.17
2022-12-16T07:24:29.377Z,61.43
2022-12-16T07:25:29.373Z,62.90
2022-12-16T07:26:29.341Z,61.48
2022-12-16T07:27:29.314Z,61.64
2022-12-16T07:28:29.293Z,61.10
2022-12-16T07:29:29.307Z,62.35
2022-12-16T07:30:29.285Z,60.55
2022-12-16T07:31:29.339Z,60.91
2022-12-16T07:32:29.252Z,60.81
2022-12-16T07:33:29.280Z,61.97
2022-12-16T07:34:29.227Z,60.92
2022-12-16T07:35:29.274Z,62.25
2022-12-16T07:36:29.231Z,61.26
2022-12-16T07:37:29.242Z,61.90
2022-12-16T07:38:29.205Z,60.94
2022-12-16T07:39:29.232Z,62.27
2022-12-16T07:40:29.252Z,61.77
2022-12-16T07:41:29.186Z,61.47
2022-12-16T07:42:29.183Z,61.67
2022-12-16T07:43:29.279Z,62.71
2022-12-16T07:44:29.205Z,61.95
2022-12-16T07:45:29.262Z,61.35
2022-12-16T07:46:29.152Z,61.36
2022-12-16T07:47:29.105Z,61.18
2022-12-16T07:48:29.105Z,64.47
2022-12-16T07:49:29.119Z,62.16
2022-12-16T07:50:29.103Z,62.16
2022-12-16T07:51:29.082Z,64.84
2022-12-16T07:52:29.128Z,62.61
2022-12-16T07:53:31.307Z,61.49
2022-12-16T07:54:29.056Z,61.54
2022-12-16T07:55:29.048Z,60.65
2022-12-16T07:56:29.037Z,63.11
2022-12-16T07:57:29.056Z,67.16
2022-12-16T07:58:29.046Z,62.15
2022-12-16T07:59:28.999Z,61.80
2022-12-16T08:00:28.983Z,63.17
2022-12-16T08:01:29.083Z,69.24
2022-12-16T08:02:29.265Z,62.43
2022-12-16T08:03:30.361Z,64.68
2022-12-16T08:04:29.216Z,69.46
2022-12-16T08:05:29.170Z,60.69
2022-12-16T08:06:28.954Z,62.37
2022-12-16T08:07:28.987Z,62.13
2022-12-16T08:08:28.982Z,61.10
2022-12-16T08:09:28.934Z,62.11
2022-12-16T08:10:28.918Z,62.21
2022-12-16T08:11:28.895Z,61.62
2022-12-16T08:12:28.874Z,64.19
2022-12-16T08:13:28.912Z,63.94
2022-12-16T08:14:28.859Z,67.90
2022-12-16T08:15:29.840Z,64.92
2022-12-16T08:16:29.015Z,62.02
2022-12-16T08:17:28.842Z,65.99
2022-12-16T08:18:28.825Z,61.46
2022-12-16T08:19:28.796Z,63.77
2022-12-16T08:20:28.883Z,63.76
2022-12-16T08:21:28.833Z,65.19
2022-12-16T08:22:28.944Z,62.01
2022-12-16T08:23:28.803Z,63.25
2022-12-16T08:24:28.770Z,61.15
2022-12-16T08:25:28.760Z,61.27
2022-12-16T08:26:28.785Z,61.62
2022-12-16T08:27:28.733Z,61.31
2022-12-16T08:28:28.744Z,61.61
2022-12-16T08:29:43.797Z,66.24
2022-12-16T08:30:30.773Z,61.58
2022-12-16T08:31:28.743Z,61.45
2022-12-16T08:32:28.729Z,62.62
2022-12-16T08:33:28.674Z,63.14
2022-12-16T08:34:28.700Z,61.52
2022-12-16T08:35:28.688Z,60.90
2022-12-16T08:36:28.663Z,62.05
2022-12-16T08:37:28.644Z,63.72
2022-12-16T08:38:28.650Z,63.11
2022-12-16T08:39:28.654Z,63.00
2022-12-16T08:40:36.761Z,63.49
2022-12-16T08:41:30.604Z,63.54
2022-12-16T08:42:28.583Z,64.92
2022-12-16T08:43:28.715Z,64.16
2022-12-16T08:44:28.726Z,63.15
2022-12-16T08:45:28.592Z,62.92
2022-12-16T08:46:28.644Z,62.56
2022-12-16T08:47:28.553Z,62.09
2022-12-16T08:48:28.548Z,62.21
2022-12-16T08:49:28.523Z,61.43
2022-12-16T08:50:28.516Z,62.50
2022-12-16T08:51:28.533Z,61.90
2022-12-16T08:52:28.633Z,62.26
2022-12-16T08:53:28.623Z,61.52
2022-12-16T08:54:28.487Z,62.62
2022-12-16T08:55:29.959Z,61.74
2022-12-16T08:56:29.496Z,64.75
2022-12-16T08:57:28.458Z,65.16
2022-12-16T08:58:28.462Z,67.77
2022-12-16T08:59:28.458Z,63.08
2022-12-16T09:00:28.445Z,63.44
2022-12-16T09:01:28.489Z,62.65
2022-12-16T09:02:28.594Z,61.08
2022-12-16T09:03:28.431Z,60.31
2022-12-16T09:04:28.398Z,61.43
2022-12-16T09:05:28.406Z,66.99
2022-12-16T09:06:28.373Z,61.30
2022-12-16T09:07:28.382Z,62.63
2022-12-16T09:08:28.359Z,61.08
2022-12-16T09:09:28.347Z,62.43
2022-12-16T09:10:28.328Z,60.95
2022-12-16T09:13:39.388Z,61.75
2022-12-16T09:14:39.365Z,61.23
2022-12-16T09:15:39.422Z,60.91
2022-12-16T09:16:39.407Z,61.91
2022-12-16T09:17:39.344Z,63.08
2022-12-16T09:18:39.353Z,69.92
2022-12-16T09:19:40.481Z,61.32
2022-12-16T09:20:40.472Z,61.41
2022-12-16T09:21:40.440Z,63.39
2022-12-16T09:22:40.439Z,60.78
2022-12-16T09:23:40.421Z,63.04
2022-12-16T09:24:40.427Z,64.23
2022-12-16T09:25:40.415Z,64.02
2022-12-16T09:26:40.452Z,62.10
2022-12-16T09:27:40.377Z,64.64
2022-12-16T09:28:40.390Z,63.96
2022-12-16T09:29:43.590Z,62.32
2022-12-16T09:30:41.363Z,61.55
2022-12-16T09:31:40.494Z,65.48
2022-12-16T09:32:40.363Z,61.35
2022-12-16T09:33:40.313Z,65.19
2022-12-16T09:34:40.311Z,66.99
2022-12-16T09:35:40.467Z,62.67
2022-12-16T09:36:40.302Z,62.40
2022-12-16T09:37:40.321Z,64.15
2022-12-16T09:38:40.283Z,62.35
2022-12-16T09:39:40.275Z,62.73
2022-12-16T09:40:40.258Z,67.94
2022-12-16T09:41:44.622Z,62.73
2022-12-16T09:42:41.272Z,62.06
2022-12-16T09:43:40.249Z,61.96
2022-12-16T09:44:40.222Z,62.59
2022-12-16T09:45:40.204Z,62.08
2022-12-16T09:46:40.363Z,68.61
2022-12-16T09:47:40.184Z,63.52
2022-12-16T09:48:40.197Z,64.45
2022-12-16T09:49:40.194Z,65.28
2022-12-16T09:50:40.149Z,64.92
2022-12-16T09:51:40.184Z,61.74
2022-12-16T09:52:40.149Z,62.59
2022-12-16T09:53:40.190Z,62.61
2022-12-16T09:54:40.120Z,61.77
2022-12-16T09:55:40.127Z,62.18
2022-12-16T09:56:40.098Z,67.64
2022-12-16T09:57:40.089Z,67.66
2022-12-16T09:58:40.108Z,61.58
2022-12-16T09:59:40.092Z,61.32
2022-12-16T10:00:40.067Z,61.77
2022-12-16T10:01:40.351Z,65.44
2022-12-16T10:02:40.319Z,62.76
2022-12-16T10:03:40.676Z,61.33
2022-12-16T10:04:40.074Z,62.03
2022-12-16T10:05:40.022Z,62.13
2022-12-16T10:06:40.019Z,62.63
2022-12-16T10:07:40.021Z,61.61
2022-12-16T10:08:40.006Z,61.10
2022-12-16T10:09:39.993Z,60.88
2022-12-16T10:10:40.015Z,61.84
2022-12-16T10:11:39.971Z,61.07
2022-12-16T10:12:39.961Z,63.66
2022-12-16T10:13:39.961Z,65.57
2022-12-16T10:14:39.965Z,62.54
2022-12-16T10:15:39.965Z,61.46
2022-12-16T10:16:39.938Z,61.03
2022-12-16T10:17:39.915Z,61.04
2022-12-16T10:18:40.000Z,63.40
2022-12-16T10:19:39.922Z,62.34
2022-12-16T10:20:39.870Z,62.94
2022-12-16T10:21:39.873Z,63.03
2022-12-16T10:22:39.897Z,62.75
2022-12-16T10:23:39.949Z,62.88
2022-12-16T10:24:39.853Z,61.74
2022-12-16T10:25:39.867Z,66.64
2022-12-16T10:26:39.832Z,62.42
2022-12-16T10:27:39.812Z,68.21
2022-12-16T10:28:39.813Z,64.63
2022-12-16T10:29:39.793Z,62.38
2022-12-16T10:30:40.866Z,60.57
2022-12-16T10:31:39.866Z,61.09
2022-12-16T10:32:39.783Z,68.34
2022-12-16T10:33:39.752Z,69.76
2022-12-16T10:34:39.767Z,62.45
2022-12-16T10:35:39.765Z,61.32
2022-12-16T10:36:39.737Z,62.14
2022-12-16T10:37:39.725Z,63.09
2022-12-16T10:38:39.712Z,69.09
2022-12-16T10:39:39.719Z,62.58
2022-12-16T10:40:39.701Z,61.24
2022-12-16T10:41:39.683Z,61.07
2022-12-16T10:42:39.671Z,69.31
2022-12-16T10:43:39.664Z,62.39
2022-12-16T10:44:39.678Z,61.01
2022-12-16T10:45:39.640Z,59.85
2022-12-16T10:46:39.732Z,61.19
2022-12-16T10:47:39.631Z,61.60
2022-12-16T10:48:43.883Z,63.39
2022-12-16T10:49:41.732Z,61.04
2022-12-16T10:50:39.603Z,63.27
2022-12-16T10:51:39.597Z,61.83
2022-12-16T10:52:39.558Z,61.58
2022-12-16T10:53:39.609Z,61.56
2022-12-16T10:54:39.571Z,64.14
2022-12-16T10:55:39.552Z,63.79
2022-12-16T10:56:39.525Z,61.56
2022-12-16T10:57:39.556Z,61.52
2022-12-16T10:58:39.530Z,59.60
2022-12-16T10:59:39.525Z,62.73
2022-12-16T11:00:39.495Z,62.03
2022-12-16T11:01:39.630Z,60.42
2022-12-16T11:02:39.629Z,60.75
2022-12-16T11:03:39.808Z,61.12
2022-12-16T11:04:44.367Z,60.60
2022-12-16T11:05:41.467Z,60.46
2022-12-16T11:06:39.438Z,61.00
2022-12-16T11:07:39.440Z,61.09
2022-12-16T11:08:39.467Z,62.30
2022-12-16T11:09:39.412Z,62.21
2022-12-16T11:10:39.438Z,60.36
2022-12-16T11:11:39.389Z,59.88
2022-12-16T11:12:39.387Z,61.63
2022-12-16T11:13:39.403Z,60.06
2022-12-16T11:14:39.379Z,60.56
2022-12-16T11:15:41.910Z,61.37
2022-12-16T11:16:39.451Z,66.10
2022-12-16T11:17:39.339Z,60.61
2022-12-16T11:18:39.339Z,61.30
2022-12-16T11:19:39.356Z,61.22
2022-12-16T11:20:39.331Z,61.86
2022-12-16T11:21:39.304Z,61.09
2022-12-16T11:22:39.309Z,61.43
2022-12-16T11:23:39.292Z,62.11
2022-12-16T11:24:39.294Z,61.38
2022-12-16T11:25:39.251Z,61.13
2022-12-16T11:26:39.252Z,60.74
2022-12-16T11:27:39.250Z,60.78
2022-12-16T11:28:39.255Z,60.50
2022-12-16T11:29:39.213Z,61.44
2022-12-16T11:30:39.211Z,61.82
2022-12-16T11:31:39.229Z,60.90
2022-12-16T11:32:39.193Z,60.35
2022-12-16T11:33:39.193Z,60.32
2022-12-16T11:34:39.173Z,60.52
2022-12-16T11:35:39.232Z,60.77
2022-12-16T11:36:39.157Z,61.58
2022-12-16T11:37:39.143Z,61.59
2022-12-16T11:38:39.151Z,60.69
2022-12-16T11:39:39.138Z,60.68
2022-12-16T11:40:39.172Z,60.83
2022-12-16T11:41:39.117Z,61.67
2022-12-16T11:42:39.102Z,60.91
2022-12-16T11:43:39.083Z,60.71
2022-12-16T11:44:39.098Z,62.51
2022-12-16T11:45:39.092Z,61.80
2022-12-16T11:46:39.085Z,64.39
2022-12-16T11:47:39.066Z,62.11
2022-12-16T11:48:39.028Z,62.71
2022-12-16T11:49:39.023Z,62.16
2022-12-16T11:50:39.018Z,59.99
2022-12-16T11:51:39.062Z,60.89
2022-12-16T11:52:39.014Z,60.43
2022-12-16T11:53:38.988Z,63.84
2022-12-16T11:54:38.987Z,61.80
2022-12-16T11:56:41.106Z,61.43
2022-12-16T11:57:38.981Z,62.62
2022-12-16T11:58:38.945Z,61.16
2022-12-16T11:59:38.957Z,62.04
2022-12-16T12:00:38.931Z,60.46
2022-12-16T12:01:44.952Z,62.02
2022-12-16T12:02:39.971Z,63.92
2022-12-16T12:03:39.582Z,62.04
2022-12-16T12:04:38.964Z,60.92
2022-12-16T12:05:38.899Z,61.85
2022-12-16T12:06:38.898Z,62.73
2022-12-16T12:07:44.612Z,63.66
2022-12-16T12:08:39.834Z,63.68
2022-12-16T12:09:38.840Z,64.01
2022-12-16T12:10:38.851Z,61.36
2022-12-16T12:11:38.809Z,61.36
2022-12-16T12:12:38.817Z,62.19
2022-12-16T12:13:44.515Z,63.12
2022-12-16T12:14:39.862Z,62.82
2022-12-16T12:15:38.788Z,61.61
2022-12-16T12:16:38.893Z,63.60
2022-12-16T12:17:38.772Z,65.02
2022-12-16T12:18:38.747Z,66.12
2022-12-16T12:19:43.810Z,67.51
2022-12-16T12:20:40.736Z,64.48
2022-12-16T12:21:38.730Z,62.79
2022-12-16T12:22:38.725Z,63.70
2022-12-16T12:23:38.712Z,64.06
2022-12-16T12:24:38.698Z,64.55
2022-12-16T12:25:38.683Z,64.49
2022-12-16T12:26:38.654Z,63.20
2022-12-16T12:27:38.696Z,67.68
2022-12-16T12:28:38.643Z,68.55
2022-12-16T12:29:38.646Z,63.47
2022-12-16T12:30:38.651Z,68.00
2022-12-16T12:31:38.709Z,63.09
2022-12-16T12:32:38.602Z,62.30
2022-12-16T12:33:38.623Z,61.27
2022-12-16T12:34:38.620Z,62.57
2022-12-16T12:35:38.575Z,66.36
2022-12-16T12:36:38.560Z,61.60
2022-12-16T12:37:38.566Z,61.23
2022-12-16T12:38:38.577Z,62.04
2022-12-16T12:39:38.536Z,63.36
2022-12-16T12:40:38.547Z,63.18
2022-12-16T12:41:38.521Z,61.99
2022-12-16T12:42:38.537Z,62.64
2022-12-16T12:43:42.722Z,62.21
2022-12-16T12:44:48.644Z,64.59
2022-12-16T12:45:40.499Z,63.20
2022-12-16T12:46:38.549Z,61.57
2022-12-16T12:47:38.456Z,61.87
2022-12-16T12:48:38.447Z,61.91
2022-12-16T12:49:38.461Z,61.90
2022-12-16T12:50:38.455Z,61.96
2022-12-16T12:51:38.433Z,60.87
2022-12-16T12:52:38.434Z,66.22
2022-12-16T12:53:38.395Z,64.93
2022-12-16T12:54:38.397Z,61.31
2022-12-16T12:55:38.386Z,60.55